sensor_id;sensor_type;location;lat;lon;timestamp;P1;durP1;ratioP1;P2;durP2;ratioP2
21581;SDS011;10952;50.836;4.348;2022-08-19T00:01:53;29.27;;;22.40;;
21581;SDS011;10952;50.836;4.348;2022-08-19T00:04:22;29.27;;;23.43;;
21581;SDS011;10952;50.836;4.348;2022-08-19T00:06:51;29.27;;;21.93;;
21581;SDS011;10952;50.836;4.348;2022-08-19T00:09:17;28.83;;;23.03;;
21581;SDS011;10952;50.836;4.348;2022-08-19T00:11:45;34.57;;;25.30;;
21581;SDS011;10952;50.836;4.348;2022-08-19T00:14:12;45.80;;;30.27;;
21581;SDS011;10952;50.836;4.348;2022-08-19T00:16:41;42.27;;;29.23;;
21581;SDS011;10952;50.836;4.348;2022-08-19T00:19:08;47.70;;;31.93;;
21581;SDS011;10952;50.836;4.348;2022-08-19T00:21:34;39.83;;;30.50;;
21581;SDS011;10952;50.836;4.348;2022-08-19T00:24:04;54.83;;;36.10;;
21581;SDS011;10952;50.836;4.348;2022-08-19T00:26:32;53.07;;;34.77;;
21581;SDS011;10952;50.836;4.348;2022-08-19T00:28:58;56.70;;;38.43;;
21581;SDS011;10952;50.836;4.348;2022-08-19T00:31:25;58.87;;;38.70;;
21581;SDS011;10952;50.836;4.348;2022-08-19T00:33:52;65.03;;;39.67;;
21581;SDS011;10952;50.836;4.348;2022-08-19T00:36:19;68.83;;;40.17;;
21581;SDS011;10952;50.836;4.348;2022-08-19T00:38:45;66.13;;;39.37;;
21581;SDS011;10952;50.836;4.348;2022-08-19T00:41:15;57.73;;;38.27;;
21581;SDS011;10952;50.836;4.348;2022-08-19T00:43:43;68.17;;;40.87;;
21581;SDS011;10952;50.836;4.348;2022-08-19T00:46:20;73.30;;;44.53;;
21581;SDS011;10952;50.836;4.348;2022-08-19T00:48:46;71.23;;;43.60;;
21581;SDS011;10952;50.836;4.348;2022-08-19T00:51:13;71.70;;;45.17;;
21581;SDS011;10952;50.836;4.348;2022-08-19T00:53:38;77.50;;;46.10;;
21581;SDS011;10952;50.836;4.348;2022-08-19T00:56:04;74.57;;;45.97;;
21581;SDS011;10952;50.836;4.348;2022-08-19T00:58:32;67.10;;;42.67;;
21581;SDS011;10952;50.836;4.348;2022-08-19T01:01:00;67.10;;;41.33;;
21581;SDS011;10952;50.836;4.348;2022-08-19T01:03:27;67.27;;;42.87;;
21581;SDS011;10952;50.836;4.348;2022-08-19T01:05:53;67.03;;;40.23;;
21581;SDS011;10952;50.836;4.348;2022-08-19T01:08:19;67.33;;;41.27;;
21581;SDS011;10952;50.836;4.348;2022-08-19T01:10:52;60.07;;;38.97;;
21581;SDS011;10952;50.836;4.348;2022-08-19T01:13:22;66.53;;;42.80;;
21581;SDS011;10952;50.836;4.348;2022-08-19T01:16:00;61.37;;;38.73;;
21581;SDS011;10952;50.836;4.348;2022-08-19T01:18:31;59.97;;;39.00;;
21581;SDS011;10952;50.836;4.348;2022-08-19T01:21:00;59.03;;;37.33;;
21581;SDS011;10952;50.836;4.348;2022-08-19T01:23:32;51.43;;;35.30;;
21581;SDS011;10952;50.836;4.348;2022-08-19T01:26:12;51.27;;;34.83;;
21581;SDS011;10952;50.836;4.348;2022-08-19T01:28:40;49.20;;;34.53;;
21581;SDS011;10952;50.836;4.348;2022-08-19T01:31:08;47.67;;;33.03;;
21581;SDS011;10952;50.836;4.348;2022-08-19T01:33:42;49.53;;;34.60;;
21581;SDS011;10952;50.836;4.348;2022-08-19T01:36:09;46.33;;;33.87;;
21581;SDS011;10952;50.836;4.348;2022-08-19T01:38:39;49.30;;;33.60;;
21581;SDS011;10952;50.836;4.348;2022-08-19T01:41:08;48.90;;;32.80;;
21581;SDS011;10952;50.836;4.348;2022-08-19T01:43:34;44.37;;;31.50;;
21581;SDS011;10952;50.836;4.348;2022-08-19T01:46:00;50.53;;;33.50;;
21581;SDS011;10952;50.836;4.348;2022-08-19T01:48:26;42.47;;;30.13;;
21581;SDS011;10952;50.836;4.348;2022-08-19T01:50:55;45.07;;;31.07;;
21581;SDS011;10952;50.836;4.348;2022-08-19T01:53:20;46.00;;;30.87;;
21581;SDS011;10952;50.836;4.348;2022-08-19T01:55:46;43.37;;;30.93;;
21581;SDS011;10952;50.836;4.348;2022-08-19T01:58:14;43.53;;;30.87;;
21581;SDS011;10952;50.836;4.348;2022-08-19T02:00:45;49.77;;;31.50;;
21581;SDS011;10952;50.836;4.348;2022-08-19T02:03:11;40.17;;;27.83;;
21581;SDS011;10952;50.836;4.348;2022-08-19T02:05:37;39.27;;;27.10;;
21581;SDS011;10952;50.836;4.348;2022-08-19T02:08:04;38.47;;;25.77;;
21581;SDS011;10952;50.836;4.348;2022-08-19T02:10:31;32.30;;;21.97;;
21581;SDS011;10952;50.836;4.348;2022-08-19T02:12:57;39.17;;;26.60;;
21581;SDS011;10952;50.836;4.348;2022-08-19T02:15:22;39.87;;;25.73;;
21581;SDS011;10952;50.836;4.348;2022-08-19T02:17:50;46.90;;;28.23;;
21581;SDS011;10952;50.836;4.348;2022-08-19T02:20:17;37.50;;;27.33;;
21581;SDS011;10952;50.836;4.348;2022-08-19T02:22:43;39.63;;;28.37;;
21581;SDS011;10952;50.836;4.348;2022-08-19T02:25:10;44.23;;;31.03;;
21581;SDS011;10952;50.836;4.348;2022-08-19T02:27:37;41.10;;;28.37;;
21581;SDS011;10952;50.836;4.348;2022-08-19T02:30:04;41.27;;;29.00;;
21581;SDS011;10952;50.836;4.348;2022-08-19T02:32:32;42.93;;;28.63;;
21581;SDS011;10952;50.836;4.348;2022-08-19T02:34:58;40.57;;;27.17;;
21581;SDS011;10952;50.836;4.348;2022-08-19T02:37:24;39.03;;;26.67;;
21581;SDS011;10952;50.836;4.348;2022-08-19T02:40:08;39.07;;;27.17;;
21581;SDS011;10952;50.836;4.348;2022-08-19T02:42:34;41.77;;;27.07;;
21581;SDS011;10952;50.836;4.348;2022-08-19T02:45:00;43.40;;;28.40;;
21581;SDS011;10952;50.836;4.348;2022-08-19T02:47:26;40.60;;;26.53;;
21581;SDS011;10952;50.836;4.348;2022-08-19T02:49:51;40.17;;;27.97;;
21581;SDS011;10952;50.836;4.348;2022-08-19T02:52:18;38.80;;;27.43;;
21581;SDS011;10952;50.836;4.348;2022-08-19T02:54:43;42.07;;;27.83;;
21581;SDS011;10952;50.836;4.348;2022-08-19T02:57:09;41.83;;;26.47;;
21581;SDS011;10952;50.836;4.348;2022-08-19T02:59:35;39.20;;;27.27;;
21581;SDS011;10952;50.836;4.348;2022-08-19T03:02:01;40.97;;;26.37;;
21581;SDS011;10952;50.836;4.348;2022-08-19T03:04:27;38.50;;;26.33;;
21581;SDS011;10952;50.836;4.348;2022-08-19T03:06:53;40.80;;;25.87;;
21581;SDS011;10952;50.836;4.348;2022-08-19T03:09:19;40.67;;;24.93;;
21581;SDS011;10952;50.836;4.348;2022-08-19T03:11:45;39.93;;;25.70;;
21581;SDS011;10952;50.836;4.348;2022-08-19T03:14:11;44.20;;;24.57;;
21581;SDS011;10952;50.836;4.348;2022-08-19T03:16:45;40.87;;;25.30;;
21581;SDS011;10952;50.836;4.348;2022-08-19T03:19:18;35.87;;;24.30;;
21581;SDS011;10952;50.836;4.348;2022-08-19T03:21:47;39.37;;;26.23;;
21581;SDS011;10952;50.836;4.348;2022-08-19T03:24:13;39.77;;;25.00;;
21581;SDS011;10952;50.836;4.348;2022-08-19T03:26:41;43.90;;;26.27;;
21581;SDS011;10952;50.836;4.348;2022-08-19T03:29:08;43.00;;;25.90;;
21581;SDS011;10952;50.836;4.348;2022-08-19T03:31:36;37.93;;;24.33;;
21581;SDS011;10952;50.836;4.348;2022-08-19T03:34:03;37.97;;;24.57;;
21581;SDS011;10952;50.836;4.348;2022-08-19T03:36:30;34.73;;;22.93;;
21581;SDS011;10952;50.836;4.348;2022-08-19T03:38:58;38.63;;;22.80;;
21581;SDS011;10952;50.836;4.348;2022-08-19T03:41:28;35.07;;;22.57;;
21581;SDS011;10952;50.836;4.348;2022-08-19T03:43:56;37.13;;;24.07;;
21581;SDS011;10952;50.836;4.348;2022-08-19T03:46:27;36.40;;;23.73;;
21581;SDS011;10952;50.836;4.348;2022-08-19T03:48:55;35.53;;;24.00;;
21581;SDS011;10952;50.836;4.348;2022-08-19T03:51:28;39.30;;;24.37;;
21581;SDS011;10952;50.836;4.348;2022-08-19T03:53:58;39.80;;;25.53;;
21581;SDS011;10952;50.836;4.348;2022-08-19T03:56:24;37.57;;;25.73;;
21581;SDS011;10952;50.836;4.348;2022-08-19T03:58:51;37.23;;;24.43;;
21581;SDS011;10952;50.836;4.348;2022-08-19T04:01:18;44.17;;;26.37;;
21581;SDS011;10952;50.836;4.348;2022-08-19T04:03:45;39.63;;;25.60;;
21581;SDS011;10952;50.836;4.348;2022-08-19T04:08:39;40.87;;;25.73;;
21581;SDS011;10952;50.836;4.348;2022-08-19T04:11:06;39.87;;;25.47;;
21581;SDS011;10952;50.836;4.348;2022-08-19T04:13:34;39.97;;;24.30;;
21581;SDS011;10952;50.836;4.348;2022-08-19T04:15:59;41.60;;;26.30;;
21581;SDS011;10952;50.836;4.348;2022-08-19T04:18:25;43.10;;;24.10;;
21581;SDS011;10952;50.836;4.348;2022-08-19T04:20:51;44.67;;;24.73;;
21581;SDS011;10952;50.836;4.348;2022-08-19T04:23:17;43.40;;;24.63;;
21581;SDS011;10952;50.836;4.348;2022-08-19T04:25:43;38.63;;;23.73;;
21581;SDS011;10952;50.836;4.348;2022-08-19T04:28:10;38.13;;;23.03;;
21581;SDS011;10952;50.836;4.348;2022-08-19T04:30:38;37.63;;;22.60;;
21581;SDS011;10952;50.836;4.348;2022-08-19T04:33:05;37.93;;;22.50;;
21581;SDS011;10952;50.836;4.348;2022-08-19T04:35:35;39.70;;;22.77;;
21581;SDS011;10952;50.836;4.348;2022-08-19T04:38:05;39.63;;;21.50;;
21581;SDS011;10952;50.836;4.348;2022-08-19T04:40:32;32.90;;;20.40;;
21581;SDS011;10952;50.836;4.348;2022-08-19T04:43:16;37.07;;;20.20;;
21581;SDS011;10952;50.836;4.348;2022-08-19T04:45:43;31.47;;;19.57;;
21581;SDS011;10952;50.836;4.348;2022-08-19T04:48:09;28.97;;;17.93;;
21581;SDS011;10952;50.836;4.348;2022-08-19T04:50:35;32.20;;;19.00;;
21581;SDS011;10952;50.836;4.348;2022-08-19T04:53:01;33.63;;;19.30;;
21581;SDS011;10952;50.836;4.348;2022-08-19T04:55:27;41.93;;;19.47;;
21581;SDS011;10952;50.836;4.348;2022-08-19T04:57:53;34.13;;;18.13;;
21581;SDS011;10952;50.836;4.348;2022-08-19T05:00:20;35.00;;;19.97;;
21581;SDS011;10952;50.836;4.348;2022-08-19T05:02:46;29.70;;;18.40;;
21581;SDS011;10952;50.836;4.348;2022-08-19T05:05:11;35.60;;;19.20;;
21581;SDS011;10952;50.836;4.348;2022-08-19T05:07:39;36.73;;;18.63;;
21581;SDS011;10952;50.836;4.348;2022-08-19T05:10:05;31.20;;;18.93;;
21581;SDS011;10952;50.836;4.348;2022-08-19T05:12:32;36.23;;;17.97;;
21581;SDS011;10952;50.836;4.348;2022-08-19T05:14:58;33.63;;;19.73;;
21581;SDS011;10952;50.836;4.348;2022-08-19T05:17:25;37.63;;;18.60;;
21581;SDS011;10952;50.836;4.348;2022-08-19T05:19:52;35.33;;;18.23;;
21581;SDS011;10952;50.836;4.348;2022-08-19T05:22:36;27.53;;;15.83;;
21581;SDS011;10952;50.836;4.348;2022-08-19T05:25:04;30.10;;;17.53;;
21581;SDS011;10952;50.836;4.348;2022-08-19T05:27:32;28.23;;;16.33;;
21581;SDS011;10952;50.836;4.348;2022-08-19T05:29:58;28.37;;;15.77;;
21581;SDS011;10952;50.836;4.348;2022-08-19T05:32:24;29.33;;;16.57;;
21581;SDS011;10952;50.836;4.348;2022-08-19T05:34:51;32.07;;;18.10;;
21581;SDS011;10952;50.836;4.348;2022-08-19T05:37:17;34.57;;;17.90;;
21581;SDS011;10952;50.836;4.348;2022-08-19T05:39:43;28.97;;;17.10;;
21581;SDS011;10952;50.836;4.348;2022-08-19T05:42:10;27.60;;;18.03;;
21581;SDS011;10952;50.836;4.348;2022-08-19T05:44:38;30.00;;;17.00;;
21581;SDS011;10952;50.836;4.348;2022-08-19T05:47:08;33.67;;;17.30;;
21581;SDS011;10952;50.836;4.348;2022-08-19T05:49:34;26.43;;;16.47;;
21581;SDS011;10952;50.836;4.348;2022-08-19T05:52:04;26.63;;;15.70;;
21581;SDS011;10952;50.836;4.348;2022-08-19T05:54:32;29.23;;;16.20;;
21581;SDS011;10952;50.836;4.348;2022-08-19T05:57:00;30.03;;;17.43;;
21581;SDS011;10952;50.836;4.348;2022-08-19T05:59:26;27.20;;;14.57;;
21581;SDS011;10952;50.836;4.348;2022-08-19T06:01:52;25.63;;;14.50;;
21581;SDS011;10952;50.836;4.348;2022-08-19T06:04:20;27.60;;;15.10;;
21581;SDS011;10952;50.836;4.348;2022-08-19T06:06:47;26.77;;;13.87;;
21581;SDS011;10952;50.836;4.348;2022-08-19T06:09:15;19.63;;;13.47;;
21581;SDS011;10952;50.836;4.348;2022-08-19T06:11:42;21.63;;;11.83;;
21581;SDS011;10952;50.836;4.348;2022-08-19T06:14:11;21.40;;;12.27;;
21581;SDS011;10952;50.836;4.348;2022-08-19T06:16:40;22.17;;;11.33;;
21581;SDS011;10952;50.836;4.348;2022-08-19T06:19:08;25.53;;;11.63;;
21581;SDS011;10952;50.836;4.348;2022-08-19T06:21:38;18.10;;;11.77;;
21581;SDS011;10952;50.836;4.348;2022-08-19T06:24:06;27.13;;;12.10;;
21581;SDS011;10952;50.836;4.348;2022-08-19T06:26:34;20.87;;;10.67;;
21581;SDS011;10952;50.836;4.348;2022-08-19T06:29:01;19.23;;;10.47;;
21581;SDS011;10952;50.836;4.348;2022-08-19T06:31:29;20.43;;;10.13;;
21581;SDS011;10952;50.836;4.348;2022-08-19T06:33:56;17.87;;;9.47;;
21581;SDS011;10952;50.836;4.348;2022-08-19T06:38:53;15.43;;;9.23;;
21581;SDS011;10952;50.836;4.348;2022-08-19T06:41:19;24.97;;;9.90;;
21581;SDS011;10952;50.836;4.348;2022-08-19T06:43:45;15.47;;;9.73;;
21581;SDS011;10952;50.836;4.348;2022-08-19T06:46:13;22.37;;;9.63;;
21581;SDS011;10952;50.836;4.348;2022-08-19T06:48:40;18.20;;;10.30;;
21581;SDS011;10952;50.836;4.348;2022-08-19T06:51:07;20.70;;;9.40;;
21581;SDS011;10952;50.836;4.348;2022-08-19T06:53:33;18.60;;;9.53;;
21581;SDS011;10952;50.836;4.348;2022-08-19T06:55:59;21.33;;;10.50;;
21581;SDS011;10952;50.836;4.348;2022-08-19T06:58:27;17.50;;;10.27;;
21581;SDS011;10952;50.836;4.348;2022-08-19T07:00:59;16.03;;;10.00;;
21581;SDS011;10952;50.836;4.348;2022-08-19T07:03:30;21.67;;;10.70;;
21581;SDS011;10952;50.836;4.348;2022-08-19T07:05:58;24.03;;;10.87;;
21581;SDS011;10952;50.836;4.348;2022-08-19T07:08:30;20.57;;;11.10;;
21581;SDS011;10952;50.836;4.348;2022-08-19T07:10:55;22.13;;;13.90;;
21581;SDS011;10952;50.836;4.348;2022-08-19T07:13:21;27.80;;;10.27;;
21581;SDS011;10952;50.836;4.348;2022-08-19T07:15:47;18.67;;;10.00;;
21581;SDS011;10952;50.836;4.348;2022-08-19T07:18:15;19.47;;;9.60;;
21581;SDS011;10952;50.836;4.348;2022-08-19T07:20:42;21.70;;;9.60;;
21581;SDS011;10952;50.836;4.348;2022-08-19T07:23:08;19.20;;;9.80;;
21581;SDS011;10952;50.836;4.348;2022-08-19T07:25:36;29.60;;;10.53;;
21581;SDS011;10952;50.836;4.348;2022-08-19T07:28:02;15.33;;;8.90;;
21581;SDS011;10952;50.836;4.348;2022-08-19T07:30:28;20.27;;;9.70;;
21581;SDS011;10952;50.836;4.348;2022-08-19T07:32:54;21.27;;;9.67;;
21581;SDS011;10952;50.836;4.348;2022-08-19T07:35:21;17.57;;;9.00;;
21581;SDS011;10952;50.836;4.348;2022-08-19T07:37:47;15.47;;;8.90;;
21581;SDS011;10952;50.836;4.348;2022-08-19T07:40:13;15.10;;;8.53;;
21581;SDS011;10952;50.836;4.348;2022-08-19T07:42:38;18.90;;;7.87;;
21581;SDS011;10952;50.836;4.348;2022-08-19T07:45:05;13.47;;;7.47;;
21581;SDS011;10952;50.836;4.348;2022-08-19T07:47:31;19.03;;;9.50;;
21581;SDS011;10952;50.836;4.348;2022-08-19T07:49:57;14.53;;;8.90;;
21581;SDS011;10952;50.836;4.348;2022-08-19T07:52:23;14.87;;;8.20;;
21581;SDS011;10952;50.836;4.348;2022-08-19T07:54:49;17.83;;;9.13;;
21581;SDS011;10952;50.836;4.348;2022-08-19T07:57:17;14.50;;;7.90;;
21581;SDS011;10952;50.836;4.348;2022-08-19T07:59:44;23.47;;;8.00;;
21581;SDS011;10952;50.836;4.348;2022-08-19T08:02:10;13.40;;;8.47;;
21581;SDS011;10952;50.836;4.348;2022-08-19T08:04:35;15.73;;;8.27;;
21581;SDS011;10952;50.836;4.348;2022-08-19T08:07:20;18.77;;;8.73;;
21581;SDS011;10952;50.836;4.348;2022-08-19T08:10:05;14.60;;;8.27;;
21581;SDS011;10952;50.836;4.348;2022-08-19T08:12:37;14.93;;;8.93;;
21581;SDS011;10952;50.836;4.348;2022-08-19T08:15:09;25.17;;;10.27;;
21581;SDS011;10952;50.836;4.348;2022-08-19T08:17:42;15.43;;;8.47;;
21581;SDS011;10952;50.836;4.348;2022-08-19T08:20:08;11.47;;;7.37;;
21581;SDS011;10952;50.836;4.348;2022-08-19T08:22:35;13.87;;;7.50;;
21581;SDS011;10952;50.836;4.348;2022-08-19T08:25:22;12.13;;;6.73;;
21581;SDS011;10952;50.836;4.348;2022-08-19T08:27:48;14.30;;;8.07;;
21581;SDS011;10952;50.836;4.348;2022-08-19T08:30:19;12.63;;;6.93;;
21581;SDS011;10952;50.836;4.348;2022-08-19T08:32:46;13.47;;;7.40;;
21581;SDS011;10952;50.836;4.348;2022-08-19T08:35:14;10.40;;;6.23;;
21581;SDS011;10952;50.836;4.348;2022-08-19T08:37:43;13.90;;;7.77;;
21581;SDS011;10952;50.836;4.348;2022-08-19T08:40:16;13.53;;;7.27;;
21581;SDS011;10952;50.836;4.348;2022-08-19T08:42:54;11.47;;;6.30;;
21581;SDS011;10952;50.836;4.348;2022-08-19T08:45:25;16.43;;;6.80;;
21581;SDS011;10952;50.836;4.348;2022-08-19T08:47:53;15.13;;;7.40;;
21581;SDS011;10952;50.836;4.348;2022-08-19T08:50:27;13.83;;;6.90;;
21581;SDS011;10952;50.836;4.348;2022-08-19T08:53:00;12.97;;;5.97;;
21581;SDS011;10952;50.836;4.348;2022-08-19T08:55:31;13.33;;;6.57;;
21581;SDS011;10952;50.836;4.348;2022-08-19T08:58:07;12.43;;;5.87;;
21581;SDS011;10952;50.836;4.348;2022-08-19T09:00:43;14.30;;;7.13;;
21581;SDS011;10952;50.836;4.348;2022-08-19T09:03:20;10.17;;;6.63;;
21581;SDS011;10952;50.836;4.348;2022-08-19T09:05:52;13.20;;;6.67;;
21581;SDS011;10952;50.836;4.348;2022-08-19T09:11:09;9.37;;;6.13;;
21581;SDS011;10952;50.836;4.348;2022-08-19T09:16:45;12.60;;;5.80;;
21581;SDS011;10952;50.836;4.348;2022-08-19T09:19:10;13.17;;;6.47;;
21581;SDS011;10952;50.836;4.348;2022-08-19T09:21:36;11.30;;;6.10;;
21581;SDS011;10952;50.836;4.348;2022-08-19T09:24:03;12.53;;;6.07;;
21581;SDS011;10952;50.836;4.348;2022-08-19T09:26:30;11.03;;;6.53;;
21581;SDS011;10952;50.836;4.348;2022-08-19T09:28:57;12.37;;;6.77;;
21581;SDS011;10952;50.836;4.348;2022-08-19T09:31:26;17.17;;;6.80;;
21581;SDS011;10952;50.836;4.348;2022-08-19T09:33:53;16.43;;;7.30;;
21581;SDS011;10952;50.836;4.348;2022-08-19T09:36:22;13.87;;;7.47;;
21581;SDS011;10952;50.836;4.348;2022-08-19T09:38:49;17.00;;;6.60;;
21581;SDS011;10952;50.836;4.348;2022-08-19T09:41:18;12.33;;;6.40;;
21581;SDS011;10952;50.836;4.348;2022-08-19T09:43:47;13.03;;;6.77;;
21581;SDS011;10952;50.836;4.348;2022-08-19T09:46:17;15.50;;;7.00;;
21581;SDS011;10952;50.836;4.348;2022-08-19T09:48:44;13.67;;;7.13;;
21581;SDS011;10952;50.836;4.348;2022-08-19T09:51:15;11.73;;;6.77;;
21581;SDS011;10952;50.836;4.348;2022-08-19T09:53:43;10.80;;;5.63;;
21581;SDS011;10952;50.836;4.348;2022-08-19T09:56:10;15.90;;;5.73;;
21581;SDS011;10952;50.836;4.348;2022-08-19T09:58:37;11.00;;;6.03;;
21581;SDS011;10952;50.836;4.348;2022-08-19T10:01:03;10.63;;;5.87;;
21581;SDS011;10952;50.836;4.348;2022-08-19T10:03:30;10.83;;;6.70;;
21581;SDS011;10952;50.836;4.348;2022-08-19T10:05:59;11.70;;;6.32;;
21581;SDS011;10952;50.836;4.348;2022-08-19T10:08:28;8.57;;;5.60;;
21581;SDS011;10952;50.836;4.348;2022-08-19T10:10:59;10.37;;;5.00;;
21581;SDS011;10952;50.836;4.348;2022-08-19T10:13:28;13.40;;;6.63;;
21581;SDS011;10952;50.836;4.348;2022-08-19T10:16:01;10.03;;;5.37;;
21581;SDS011;10952;50.836;4.348;2022-08-19T10:18:35;10.20;;;5.60;;
21581;SDS011;10952;50.836;4.348;2022-08-19T10:21:03;10.10;;;5.85;;
21581;SDS011;10952;50.836;4.348;2022-08-19T10:23:34;12.17;;;8.73;;
21581;SDS011;10952;50.836;4.348;2022-08-19T10:26:01;13.33;;;7.70;;
21581;SDS011;10952;50.836;4.348;2022-08-19T10:28:30;13.40;;;7.00;;
21581;SDS011;10952;50.836;4.348;2022-08-19T10:31:06;13.10;;;7.43;;
21581;SDS011;10952;50.836;4.348;2022-08-19T10:33:36;13.57;;;7.63;;
21581;SDS011;10952;50.836;4.348;2022-08-19T10:36:07;10.65;;;7.13;;
21581;SDS011;10952;50.836;4.348;2022-08-19T10:38:35;12.13;;;7.20;;
21581;SDS011;10952;50.836;4.348;2022-08-19T10:41:08;11.52;;;7.50;;
21581;SDS011;10952;50.836;4.348;2022-08-19T10:43:39;16.20;;;7.88;;
21581;SDS011;10952;50.836;4.348;2022-08-19T10:46:06;13.48;;;7.80;;
21581;SDS011;10952;50.836;4.348;2022-08-19T10:48:37;10.70;;;8.43;;
21581;SDS011;10952;50.836;4.348;2022-08-19T10:51:03;11.68;;;7.95;;
21581;SDS011;10952;50.836;4.348;2022-08-19T10:53:47;16.08;;;9.18;;
21581;SDS011;10952;50.836;4.348;2022-08-19T10:56:13;12.80;;;8.35;;
21581;SDS011;10952;50.836;4.348;2022-08-19T10:58:58;12.70;;;8.93;;
21581;SDS011;10952;50.836;4.348;2022-08-19T11:01:26;14.25;;;11.77;;
21581;SDS011;10952;50.836;4.348;2022-08-19T11:03:54;15.18;;;8.85;;
21581;SDS011;10952;50.836;4.348;2022-08-19T11:06:24;15.70;;;9.35;;
21581;SDS011;10952;50.836;4.348;2022-08-19T11:08:54;15.02;;;8.07;;
21581;SDS011;10952;50.836;4.348;2022-08-19T11:11:25;14.20;;;7.38;;
21581;SDS011;10952;50.836;4.348;2022-08-19T11:13:57;8.27;;;5.43;;
21581;SDS011;10952;50.836;4.348;2022-08-19T11:16:26;13.43;;;7.05;;
21581;SDS011;10952;50.836;4.348;2022-08-19T11:18:58;10.80;;;6.82;;
21581;SDS011;10952;50.836;4.348;2022-08-19T11:21:26;15.52;;;7.68;;
21581;SDS011;10952;50.836;4.348;2022-08-19T11:24:10;16.23;;;9.75;;
21581;SDS011;10952;50.836;4.348;2022-08-19T11:29:11;15.15;;;10.30;;
21581;SDS011;10952;50.836;4.348;2022-08-19T11:31:41;17.65;;;11.18;;
21581;SDS011;10952;50.836;4.348;2022-08-19T11:36:39;17.63;;;11.27;;
21581;SDS011;10952;50.836;4.348;2022-08-19T11:39:07;12.07;;;9.88;;
21581;SDS011;10952;50.836;4.348;2022-08-19T11:41:34;16.98;;;11.23;;
21581;SDS011;10952;50.836;4.348;2022-08-19T11:44:02;14.23;;;9.73;;
21581;SDS011;10952;50.836;4.348;2022-08-19T11:46:29;15.80;;;10.07;;
21581;SDS011;10952;50.836;4.348;2022-08-19T11:51:28;12.73;;;8.95;;
21581;SDS011;10952;50.836;4.348;2022-08-19T11:53:58;14.20;;;8.50;;
21581;SDS011;10952;50.836;4.348;2022-08-19T11:56:27;12.90;;;8.20;;
21581;SDS011;10952;50.836;4.348;2022-08-19T11:58:55;12.70;;;8.75;;
21581;SDS011;10952;50.836;4.348;2022-08-19T12:01:23;13.32;;;7.72;;
21581;SDS011;10952;50.836;4.348;2022-08-19T12:03:50;10.40;;;6.95;;
21581;SDS011;10952;50.836;4.348;2022-08-19T12:06:20;9.60;;;6.93;;
21581;SDS011;10952;50.836;4.348;2022-08-19T12:08:56;8.15;;;6.65;;
21581;SDS011;10952;50.836;4.348;2022-08-19T12:11:29;10.32;;;6.35;;
21581;SDS011;10952;50.836;4.348;2022-08-19T12:16:28;10.43;;;5.70;;
21581;SDS011;10952;50.836;4.348;2022-08-19T12:18:55;8.35;;;5.25;;
21581;SDS011;10952;50.836;4.348;2022-08-19T12:21:24;7.88;;;5.00;;
21581;SDS011;10952;50.836;4.348;2022-08-19T12:23:53;7.80;;;5.18;;
21581;SDS011;10952;50.836;4.348;2022-08-19T12:26:20;9.93;;;5.45;;
21581;SDS011;10952;50.836;4.348;2022-08-19T12:28:46;8.68;;;4.25;;
21581;SDS011;10952;50.836;4.348;2022-08-19T12:31:13;12.38;;;4.20;;
21581;SDS011;10952;50.836;4.348;2022-08-19T12:33:39;8.50;;;5.43;;
21581;SDS011;10952;50.836;4.348;2022-08-19T12:36:07;7.05;;;4.65;;
21581;SDS011;10952;50.836;4.348;2022-08-19T12:38:35;6.50;;;4.03;;
21581;SDS011;10952;50.836;4.348;2022-08-19T12:41:02;6.35;;;3.55;;
21581;SDS011;10952;50.836;4.348;2022-08-19T12:43:31;7.47;;;3.58;;
21581;SDS011;10952;50.836;4.348;2022-08-19T12:45:57;6.57;;;3.50;;
21581;SDS011;10952;50.836;4.348;2022-08-19T12:48:23;8.07;;;2.80;;
21581;SDS011;10952;50.836;4.348;2022-08-19T12:50:49;4.75;;;2.88;;
21581;SDS011;10952;50.836;4.348;2022-08-19T12:53:15;5.25;;;3.00;;
21581;SDS011;10952;50.836;4.348;2022-08-19T12:55:41;6.38;;;3.45;;
21581;SDS011;10952;50.836;4.348;2022-08-19T12:58:10;5.93;;;3.45;;
21581;SDS011;10952;50.836;4.348;2022-08-19T13:00:37;5.70;;;2.67;;
21581;SDS011;10952;50.836;4.348;2022-08-19T13:03:03;4.63;;;2.88;;
21581;SDS011;10952;50.836;4.348;2022-08-19T13:05:30;5.60;;;2.95;;
21581;SDS011;10952;50.836;4.348;2022-08-19T13:08:01;6.70;;;2.90;;
21581;SDS011;10952;50.836;4.348;2022-08-19T13:10:30;9.73;;;3.08;;
21581;SDS011;10952;50.836;4.348;2022-08-19T13:13:02;4.68;;;2.60;;
21581;SDS011;10952;50.836;4.348;2022-08-19T13:15:35;4.53;;;3.20;;
21581;SDS011;10952;50.836;4.348;2022-08-19T13:18:04;5.72;;;3.45;;
21581;SDS011;10952;50.836;4.348;2022-08-19T13:20:30;4.65;;;2.45;;
21581;SDS011;10952;50.836;4.348;2022-08-19T13:22:55;6.63;;;2.55;;
21581;SDS011;10952;50.836;4.348;2022-08-19T13:25:23;9.00;;;3.50;;
21581;SDS011;10952;50.836;4.348;2022-08-19T13:27:50;5.28;;;3.35;;
21581;SDS011;10952;50.836;4.348;2022-08-19T13:30:17;6.32;;;2.80;;
21581;SDS011;10952;50.836;4.348;2022-08-19T13:33:04;5.80;;;2.60;;
21581;SDS011;10952;50.836;4.348;2022-08-19T13:35:36;6.13;;;2.42;;
21581;SDS011;10952;50.836;4.348;2022-08-19T13:38:05;4.07;;;2.10;;
21581;SDS011;10952;50.836;4.348;2022-08-19T13:40:31;13.02;;;10.15;;
21581;SDS011;10952;50.836;4.348;2022-08-19T13:43:01;6.80;;;2.80;;
21581;SDS011;10952;50.836;4.348;2022-08-19T13:45:29;10.02;;;3.10;;
21581;SDS011;10952;50.836;4.348;2022-08-19T13:48:00;6.10;;;2.35;;
21581;SDS011;10952;50.836;4.348;2022-08-19T13:50:30;5.30;;;3.80;;
21581;SDS011;10952;50.836;4.348;2022-08-19T13:52:56;4.32;;;2.55;;
21581;SDS011;10952;50.836;4.348;2022-08-19T13:55:23;4.20;;;2.83;;
21581;SDS011;10952;50.836;4.348;2022-08-19T13:57:50;5.05;;;2.92;;
21581;SDS011;10952;50.836;4.348;2022-08-19T14:00:18;4.35;;;2.30;;
21581;SDS011;10952;50.836;4.348;2022-08-19T14:02:47;12.00;;;8.10;;
21581;SDS011;10952;50.836;4.348;2022-08-19T14:05:16;16.90;;;11.13;;
21581;SDS011;10952;50.836;4.348;2022-08-19T14:07:43;7.53;;;3.30;;
21581;SDS011;10952;50.836;4.348;2022-08-19T14:10:10;6.70;;;3.22;;
21581;SDS011;10952;50.836;4.348;2022-08-19T14:12:37;9.18;;;3.60;;
21581;SDS011;10952;50.836;4.348;2022-08-19T14:15:04;6.63;;;3.30;;
21581;SDS011;10952;50.836;4.348;2022-08-19T14:17:32;4.97;;;2.55;;
21581;SDS011;10952;50.836;4.348;2022-08-19T14:20:00;8.15;;;2.97;;
21581;SDS011;10952;50.836;4.348;2022-08-19T14:22:31;7.22;;;3.33;;
21581;SDS011;10952;50.836;4.348;2022-08-19T14:24:57;4.05;;;2.35;;
21581;SDS011;10952;50.836;4.348;2022-08-19T14:27:23;6.93;;;3.53;;
21581;SDS011;10952;50.836;4.348;2022-08-19T14:29:51;2.93;;;2.20;;
21581;SDS011;10952;50.836;4.348;2022-08-19T14:32:17;5.28;;;2.45;;
21581;SDS011;10952;50.836;4.348;2022-08-19T14:34:43;3.55;;;1.77;;
21581;SDS011;10952;50.836;4.348;2022-08-19T14:37:12;5.93;;;1.75;;
21581;SDS011;10952;50.836;4.348;2022-08-19T14:39:39;4.60;;;2.25;;
21581;SDS011;10952;50.836;4.348;2022-08-19T14:42:10;4.82;;;2.25;;
21581;SDS011;10952;50.836;4.348;2022-08-19T14:44:37;4.15;;;1.90;;
21581;SDS011;10952;50.836;4.348;2022-08-19T14:47:03;2.38;;;1.65;;
21581;SDS011;10952;50.836;4.348;2022-08-19T14:49:29;3.28;;;1.77;;
21581;SDS011;10952;50.836;4.348;2022-08-19T14:51:54;4.45;;;2.00;;
21581;SDS011;10952;50.836;4.348;2022-08-19T14:54:21;3.60;;;1.40;;
21581;SDS011;10952;50.836;4.348;2022-08-19T14:56:46;3.85;;;1.60;;
21581;SDS011;10952;50.836;4.348;2022-08-19T14:59:13;3.92;;;1.40;;